^^
Grace C. Lehan Memorial Weather Station Historical Data
Daily Summary for October 04, 2022 Units:  Metric    English   Both
Daily Weekly Monthly Yearly
  High: Low: Average:
Temperature: 13.4 °C 9.4 °C 11.4 °C
Dew Point: 11.6 °C 5.3 °C 8.7 °C
Humidity: 94.2% 72% 84%
Wind Speed: 7.9km/h 0km/h 1.8km/h
Wind Gust: 29km/h - -
Wind- - ESE
Pressure: 1021.2 hPa 1014.1 hPa -
Precipitation: 3.3 mm    
 
 
Tabular Data for October 04, 2022
Time Temperature Dew Point Pressure Wind Wind Speed Wind Gust Humidity Rainfall Rate (Hourly) solar
00:04 10.2 °C 5.3 °C 1021.2 hPa NNW 0.2 km/h 3.2 km/h 72% 0 mm 0 W/m2
00:09 10.2 °C 5.5 °C 1021.2 hPa North 1.1 km/h 11.3 km/h 72.9% 0 mm 0 W/m2
00:14 10.2 °C 5.3 °C 1020.9 hPa NNE 1.1 km/h 11.3 km/h 72% 0 mm 0 W/m2
00:19 10.2 °C 5.4 °C 1020.9 hPa ENE 1.6 km/h 12.9 km/h 72% 0 mm 0 W/m2
00:24 10.2 °C 5.4 °C 1020.9 hPa ENE 0.2 km/h 12.9 km/h 72.1% 0 mm 0 W/m2
00:29 10.2 °C 5.6 °C 1020.9 hPa NE 0.6 km/h 12.9 km/h 73% 0 mm 0 W/m2
00:34 10.2 °C 5.6 °C 1020.9 hPa South 0.3 km/h 12.9 km/h 73.2% 0 mm 0 W/m2
00:39 10.2 °C 5.7 °C 1020.5 hPa NNW 0.6 km/h 8 km/h 73.9% 0 mm 0 W/m2
00:44 10.1 °C 5.7 °C 1020.5 hPa NW 0.8 km/h 8 km/h 74% 0 mm 0 W/m2
00:49 10.1 °C 5.7 °C 1020.5 hPa NNW 0.5 km/h 8 km/h 74% 0 mm 0 W/m2
00:54 10.1 °C 5.7 °C 1020.5 hPa East 0.5 km/h 8 km/h 74% 0 mm 0 W/m2
00:59 10.1 °C 5.7 °C 1020.5 hPa ENE 1.8 km/h 9.7 km/h 74% 0 mm 0 W/m2
01:04 10 °C 5.6 °C 1020.5 hPa NNE 0.8 km/h 9.7 km/h 74% 0 mm 0 W/m2
01:09 10 °C 5.6 °C 1020.2 hPa NE 0.5 km/h 8 km/h 74% 0 mm 0 W/m2
01:14 10 °C 5.6 °C 1020.5 hPa ENE 1.4 km/h 14.5 km/h 74% 0 mm 0 W/m2
01:19 10 °C 5.6 °C 1020.5 hPa ENE 1 km/h 14.5 km/h 74% 0 mm 0 W/m2
01:24 10 °C 5.6 °C 1020.2 hPa ESE 0.3 km/h 14.5 km/h 74% 0 mm 0 W/m2
01:29 10 °C 5.6 °C 1020.5 hPa NNE 0.6 km/h 14.5 km/h 74% 0 mm 0 W/m2
01:34 10 °C 5.6 °C 1020.2 hPa ENE 0.8 km/h 14.5 km/h 74% 0 mm 0 W/m2
01:39 10 °C 5.7 °C 1020.2 hPa ENE 1.3 km/h 12.9 km/h 74.4% 0 mm 0 W/m2
01:44 10 °C 5.5 °C 1020.2 hPa East 1 km/h 12.9 km/h 73.6% 0 mm 0 W/m2
01:49 10.1 °C 5.4 °C 1020.2 hPa ENE 1.1 km/h 12.9 km/h 73% 0 mm 0 W/m2
01:54 10.1 °C 5.5 °C 1019.9 hPa NE 2.4 km/h 20.9 km/h 73.4% 0 mm 0 W/m2
01:59 10.1 °C 5.6 °C 1019.9 hPa East 1.6 km/h 20.9 km/h 73.7% 0 mm 0 W/m2
02:04 10 °C 5.6 °C 1019.9 hPa NNE 0.8 km/h 20.9 km/h 73.8% 0 mm 0 W/m2
02:09 10 °C 5.5 °C 1019.9 hPa NE 1.8 km/h 12.9 km/h 73.7% 0 mm 0 W/m2
02:14 10 °C 5.6 °C 1019.9 hPa ENE 0.6 km/h 12.9 km/h 74% 0 mm 0 W/m2
02:19 10 °C 5.6 °C 1019.9 hPa NNE 1.8 km/h 22.5 km/h 74% 0 mm 0 W/m2
02:24 9.9 °C 5.6 °C 1019.9 hPa NE 2.1 km/h 22.5 km/h 74% 0 mm 0 W/m2
02:29 9.9 °C 5.6 °C 1019.9 hPa ENE 1.8 km/h 22.5 km/h 74.2% 0 mm 0 W/m2
02:34 9.9 °C 5.7 °C 1019.5 hPa NNE 1.4 km/h 22.5 km/h 74.9% 0 mm 0 W/m2
02:39 9.9 °C 5.7 °C 1019.5 hPa NE 1 km/h 11.3 km/h 75% 0 mm 0 W/m2
02:44 9.9 °C 5.7 °C 1019.2 hPa NW 2.3 km/h 22.5 km/h 75% 0 mm 0 W/m2
02:49 9.9 °C 5.7 °C 1019.5 hPa North 2.4 km/h 22.5 km/h 75% 0 mm 0 W/m2
02:54 9.9 °C 5.7 °C 1019.2 hPa North 1 km/h 22.5 km/h 75% 0 mm 0 W/m2
02:59 9.9 °C 5.7 °C 1019.2 hPa North 0.6 km/h 22.5 km/h 75% 0 mm 0 W/m2
03:04 9.9 °C 5.7 °C 1019.2 hPa NE 1.4 km/h 22.5 km/h 75% 0 mm 0 W/m2
03:09 9.9 °C 5.7 °C 1019.2 hPa East 1.1 km/h 16.1 km/h 75% 0 mm 0 W/m2
03:14 9.9 °C 5.7 °C 1018.8 hPa NE 1 km/h 16.1 km/h 75.3% 0 mm 0 W/m2
03:19 9.9 °C 5.9 °C 1018.8 hPa North 0.8 km/h 16.1 km/h 76% 0 mm 0 W/m2
03:24 9.9 °C 5.9 °C 1018.8 hPa NE 1.6 km/h 16.1 km/h 76% 0 mm 0 W/m2
03:29 9.9 °C 5.9 °C 1018.8 hPa ENE 1.1 km/h 16.1 km/h 76.2% 0 mm 0 W/m2
03:34 9.9 °C 5.9 °C 1018.8 hPa NE 1.8 km/h 16.1 km/h 76.6% 0 mm 0 W/m2
03:39 9.9 °C 6.1 °C 1018.8 hPa ENE 0.5 km/h 14.5 km/h 77% 0 mm 0 W/m2
03:44 9.9 °C 6.1 °C 1018.8 hPa ENE 1 km/h 14.5 km/h 77% 0 mm 0 W/m2
03:49 9.9 °C 6.1 °C 1018.5 hPa North 1.6 km/h 14.5 km/h 77% 0 mm 0 W/m2
03:54 9.9 °C 6.1 °C 1018.5 hPa North 1.8 km/h 17.7 km/h 77% 0 mm 0 W/m2
03:59 9.9 °C 6.1 °C 1018.5 hPa ENE 1 km/h 17.7 km/h 77% 0 mm 0 W/m2
04:04 9.9 °C 6.3 °C 1018.5 hPa NW 0.5 km/h 1.6 km/h 78% 0 mm 0 W/m2
04:09 9.9 °C 6.3 °C 1018.5 hPa NE 1.4 km/h 17.7 km/h 78% 0 mm 0 W/m2
04:14 9.9 °C 6.3 °C 1018.5 hPa ENE 1.3 km/h 17.7 km/h 78% 0 mm 0 W/m2
04:19 9.9 °C 6.3 °C 1018.5 hPa NE 0.5 km/h 17.7 km/h 78% 0 mm 0 W/m2
04:24 9.9 °C 6.3 °C 1018.5 hPa NNW 1 km/h 17.7 km/h 78% 0 mm 0 W/m2
04:29 9.9 °C 6.3 °C 1018.5 hPa NNE 1.8 km/h 19.3 km/h 78% 0 mm 0 W/m2
04:34 9.9 °C 6.3 °C 1018.5 hPa NE 2.4 km/h 19.3 km/h 78% 0 mm 0 W/m2
04:39 9.9 °C 6.4 °C 1018.5 hPa ENE 1.8 km/h 16.1 km/h 78.9% 0.25 mm 0 W/m2
04:44 9.8 °C 6.4 °C 1018.5 hPa ENE 2.7 km/h 16.1 km/h 79.2% 0.25 mm 0 W/m2
04:49 9.7 °C 6.5 °C 1018.5 hPa NE 4.3 km/h 17.7 km/h 80.3% 0.25 mm 0 W/m2
04:54 9.7 °C 6.6 °C 1018.5 hPa ENE 1 km/h 17.7 km/h 80.8% 0.25 mm 0 W/m2
04:59 9.6 °C 6.6 °C 1018.5 hPa NE 2.4 km/h 20.9 km/h 81.1% 0.25 mm 0 W/m2
05:04 9.6 °C 6.6 °C 1018.5 hPa ENE 0.6 km/h 20.9 km/h 81.8% 0.25 mm 0 W/m2
05:09 9.6 °C 6.7 °C 1018.5 hPa NNE 1.6 km/h 16.1 km/h 82% 0.25 mm 0 W/m2
05:14 9.6 °C 6.7 °C 1018.8 hPa NNW 1.3 km/h 16.1 km/h 82% 0.25 mm 0 W/m2
05:19 9.6 °C 6.7 °C 1018.8 hPa NE 0.3 km/h 16.1 km/h 82% 0.25 mm 0 W/m2
05:24 9.6 °C 6.7 °C 1018.8 hPa NNE 0.3 km/h 16.1 km/h 82% 0.25 mm 0 W/m2
05:29 9.6 °C 6.7 °C 1018.5 hPa North 1 km/h 16.1 km/h 82% 0.25 mm 0 W/m2
05:34 9.6 °C 6.7 °C 1018.8 hPa NE 1.8 km/h 16.1 km/h 82% 0.25 mm 0 W/m2
05:39 9.6 °C 6.7 °C 1018.8 hPa NNE 0.6 km/h 14.5 km/h 82% 0.25 mm 0 W/m2
05:44 9.6 °C 6.7 °C 1018.8 hPa NNW 1.8 km/h 14.5 km/h 82% 0.25 mm 0 W/m2
05:49 9.6 °C 6.7 °C 1018.8 hPa NE 0.3 km/h 14.5 km/h 82% 0.25 mm 0 W/m2
05:54 9.7 °C 6.7 °C 1018.8 hPa NE 0.6 km/h 14.5 km/h 82% 0.25 mm 0 W/m2
05:59 9.7 °C 6.7 °C 1018.5 hPa NNE 1.1 km/h 14.5 km/h 82% 0.25 mm 0 W/m2
06:04 9.6 °C 6.8 °C 1018.5 hPa NW 0.8 km/h 14.5 km/h 82.7% 0.25 mm 0 W/m2
06:09 9.6 °C 6.8 °C 1018.5 hPa NNW 1 km/h 16.1 km/h 83% 0 mm 0 W/m2
06:14 9.6 °C 6.8 °C 1018.2 hPa North 1.1 km/h 16.1 km/h 83% 0 mm 0 W/m2
06:19 9.5 °C 6.8 °C 1018.2 hPa NE 1 km/h 16.1 km/h 83% 0 mm 0 W/m2
06:24 9.4 °C 6.7 °C 1018.2 hPa North 2.4 km/h 16.1 km/h 83% 0 mm 0 W/m2
06:29 9.4 °C 6.7 °C 1018.2 hPa NE 1.9 km/h 16.1 km/h 83% 0 mm 0 W/m2
06:34 9.5 °C 6.8 °C 1018.2 hPa NNE 0.6 km/h 16.1 km/h 83% 0 mm 0 W/m2
06:39 9.6 °C 6.8 °C 1018.2 hPa NNW 1.3 km/h 19.3 km/h 82.9% 0 mm 0 W/m2
06:44 9.6 °C 6.7 °C 1018.2 hPa NNE 1.4 km/h 19.3 km/h 82% 0 mm 0 W/m2
06:49 9.6 °C 6.7 °C 1018.2 hPa NE 1 km/h 19.3 km/h 82% 0 mm 0 W/m2
06:54 9.7 °C 6.7 °C 1018.2 hPa NNE 1.1 km/h 19.3 km/h 82% 0 mm 0 W/m2
06:59 9.7 °C 6.8 °C 1018.2 hPa NNE 0.6 km/h 19.3 km/h 82% 0 mm 0 W/m2
07:04 9.7 °C 6.8 °C 1018.2 hPa NNW 1 km/h 19.3 km/h 82% 0 mm 0 W/m2
07:09 9.8 °C 6.8 °C 1018.2 hPa NW 0.2 km/h 6.4 km/h 82% 0 mm 5 W/m2
07:14 9.8 °C 6.8 °C 1018.5 hPa NNW 0.6 km/h 17.7 km/h 82% 0 mm 7 W/m2
07:19 9.8 °C 6.9 °C 1018.2 hPa NNW 0.5 km/h 17.7 km/h 82% 0 mm 12 W/m2
07:24 9.8 °C 6.8 °C 1018.2 hPa NE 3.9 km/h 17.7 km/h 81.6% 0 mm 18 W/m2
07:29 9.9 °C 6.8 °C 1018.2 hPa NE 2.1 km/h 17.7 km/h 81% 0 mm 21 W/m2
07:34 9.9 °C 6.8 °C 1018.2 hPa East 1.6 km/h 17.7 km/h 81% 0 mm 26 W/m2
07:39 10 °C 6.9 °C 1018.2 hPa ESE 2.1 km/h 11.3 km/h 81% 0 mm 32 W/m2
07:44 10.1 °C 6.9 °C 1018.5 hPa NE 4.5 km/h 22.5 km/h 81% 0 mm 33 W/m2
07:49 10.1 °C 6.9 °C 1018.5 hPa NE 1.8 km/h 22.5 km/h 80.7% 0 mm 37 W/m2
07:54 10.1 °C 6.9 °C 1018.5 hPa NE 2.4 km/h 22.5 km/h 80.3% 0 mm 37 W/m2
07:59 10.2 °C 6.9 °C 1018.2 hPa NNE 1.4 km/h 22.5 km/h 80% 0 mm 33 W/m2
08:00 10.2 °C 6.9 °C 1018.2 hPa Calm   22.5 km/h 80% 0 mm 28 W/m2
08:09 10.2 °C 6.9 °C 1018.5 hPa ENE 2.7 km/h 22.5 km/h 80.4% 0 mm 26 W/m2
08:14 10.2 °C 6.9 °C 1018.5 hPa ESE 1.6 km/h 24.1 km/h 80% 0 mm 25 W/m2
08:19 10.2 °C 6.9 °C 1018.5 hPa NE 2.3 km/h 24.1 km/h 80% 0 mm 30 W/m2
08:24 10.3 °C 6.9 °C 1018.5 hPa NE 2.4 km/h 24.1 km/h 80% 0 mm 39 W/m2
08:29 10.3 °C 7 °C 1018.5 hPa NE 1.8 km/h 24.1 km/h 80% 0 mm 44 W/m2
08:34 10.3 °C 7 °C 1018.5 hPa ENE 3.1 km/h 24.1 km/h 80% 0 mm 44 W/m2
08:39 10.3 °C 7 °C 1018.5 hPa NE 1 km/h 14.5 km/h 80% 0 mm 44 W/m2
08:44 10.3 °C 7.1 °C 1018.5 hPa NE 0.3 km/h 14.5 km/h 80% 0 mm 46 W/m2
08:49 10.3 °C 7.1 °C 1018.5 hPa ENE 2.9 km/h 17.7 km/h 80% 0 mm 56 W/m2
08:54 10.3 °C 7.1 °C 1018.5 hPa ENE 3.5 km/h 20.9 km/h 80% 0 mm 56 W/m2
08:59 10.3 °C 7.1 °C 1018.5 hPa ENE 1.3 km/h 20.9 km/h 80% 0 mm 51 W/m2
09:04 10.3 °C 7.2 °C 1018.5 hPa NE 2.1 km/h 20.9 km/h 80.8% 0 mm 42 W/m2
09:09 10.3 °C 7.2 °C 1018.5 hPa ENE 2.4 km/h 16.1 km/h 81% 0 mm 44 W/m2
09:14 10.3 °C 7.2 °C 1018.5 hPa NE 2.3 km/h 16.1 km/h 81.1% 0 mm 49 W/m2
09:19 10.2 °C 7.4 °C 1018.5 hPa NNE 2.6 km/h 17.7 km/h 82.4% 0 mm 49 W/m2
09:24 10.2 °C 7.4 °C 1018.2 hPa East 1.8 km/h 17.7 km/h 83.3% 0.25 mm 54 W/m2
09:29 10.1 °C 7.6 °C 1018.2 hPa NNW 0.6 km/h 17.7 km/h 84.3% 0.25 mm 67 W/m2
09:34 10 °C 7.6 °C 1018.2 hPa ENE 2.9 km/h 17.7 km/h 85.2% 0.25 mm 76 W/m2
09:39 9.9 °C 7.7 °C 1018.2 hPa NNE 1.8 km/h 14.5 km/h 86% 0.51 mm 77 W/m2
09:44 9.8 °C 7.7 °C 1018.2 hPa NE 1.3 km/h 14.5 km/h 86.3% 0.51 mm 90 W/m2
09:49 9.8 °C 7.8 °C 1018.2 hPa ENE 1.1 km/h 14.5 km/h 87% 0.51 mm 98 W/m2
09:54 9.9 °C 8 °C 1018.2 hPa NE 0.3 km/h 14.5 km/h 87.9% 0.51 mm 100 W/m2
09:59 9.9 °C 8.1 °C 1018.2 hPa NNE 1.1 km/h 14.5 km/h 88% 0.51 mm 118 W/m2
10:04 10.1 °C 8.3 °C 1018.2 hPa NE 1.9 km/h 14.5 km/h 88.8% 0.51 mm 127 W/m2
10:09 10.1 °C 8.3 °C 1018.2 hPa NNE 0.8 km/h 12.9 km/h 88.5% 0.51 mm 125 W/m2
10:14 10.2 °C 8.6 °C 1017.8 hPa NNE 1.4 km/h 12.9 km/h 89.9% 0.51 mm 130 W/m2
10:19 10.3 °C 8.6 °C 1017.8 hPa NE 1.4 km/h 12.9 km/h 89% 0.51 mm 132 W/m2
10:24 10.4 °C 8.6 °C 1017.8 hPa ENE 1.1 km/h 12.9 km/h 88.9% 0.51 mm 116 W/m2
10:29 10.4 °C 8.6 °C 1017.8 hPa ENE 2.3 km/h 12.9 km/h 88.2% 0.51 mm 100 W/m2
10:34 10.6 °C 8.7 °C 1017.8 hPa NE 2.4 km/h 19.3 km/h 88.2% 0.51 mm 109 W/m2
10:39 10.6 °C 8.8 °C 1017.8 hPa NE 0.6 km/h 19.3 km/h 88.8% 0.25 mm 114 W/m2
10:44 10.7 °C 8.9 °C 1017.5 hPa NE 1.3 km/h 19.3 km/h 89% 0.25 mm 123 W/m2
10:49 10.8 °C 9.1 °C 1017.5 hPa ENE 2.7 km/h 19.3 km/h 89% 0.25 mm 123 W/m2
10:54 10.9 °C 9.2 °C 1017.5 hPa NE 2.1 km/h 19.3 km/h 89% 0.51 mm 120 W/m2
10:59 11 °C 9.3 °C 1017.5 hPa NNE 2.4 km/h 19.3 km/h 89% 0.51 mm 148 W/m2
11:04 11.1 °C 9.4 °C 1017.2 hPa ENE 2.1 km/h 19.3 km/h 89% 0.51 mm 156 W/m2
11:09 11.2 °C 9.4 °C 1017.2 hPa ENE 3.5 km/h 19.3 km/h 89% 0.25 mm 181 W/m2
11:14 11.2 °C 9.4 °C 1017.5 hPa ENE 2.1 km/h 19.3 km/h 89% 0.51 mm 178 W/m2
11:19 11.2 °C 9.5 °C 1017.5 hPa NE 7.7 km/h 24.1 km/h 89% 0.51 mm 176 W/m2
11:24 11.2 °C 9.5 °C 1017.5 hPa NE 5 km/h 24.1 km/h 89% 0.51 mm 174 W/m2
11:29 11.2 °C 9.4 °C 1017.5 hPa ENE 4.3 km/h 24.1 km/h 88.4% 0.51 mm 179 W/m2
11:34 11.3 °C 9.5 °C 1017.5 hPa NE 3.9 km/h 24.1 km/h 88.7% 0.51 mm 225 W/m2
11:39 11.4 °C 9.7 °C 1017.5 hPa NE 3.5 km/h 19.3 km/h 89% 0.51 mm 204 W/m2
11:44 11.5 °C 9.7 °C 1017.5 hPa NE 3.7 km/h 20.9 km/h 88.8% 0.51 mm 221 W/m2
11:49 11.6 °C 9.7 °C 1017.2 hPa ENE 5.5 km/h 20.9 km/h 88% 0.51 mm 292 W/m2
11:54 11.7 °C 9.7 °C 1017.2 hPa ENE 4 km/h 24.1 km/h 87.6% 0.51 mm 272 W/m2
11:59 11.8 °C 9.8 °C 1017.5 hPa ENE 2.7 km/h 24.1 km/h 87.4% 0.51 mm 209 W/m2
12:09 11.8 °C 9.6 °C 1016.8 hPa NE 4.2 km/h 22.5 km/h 86% 0.51 mm 216 W/m2
12:14 11.9 °C 9.6 °C 1016.8 hPa NE 7.1 km/h 25.7 km/h 85.8% 0.51 mm 236 W/m2
12:19 11.9 °C 9.6 °C 1016.8 hPa ENE 5.3 km/h 25.7 km/h 85.2% 0.51 mm 260 W/m2
12:24 12.1 °C 9.6 °C 1016.8 hPa ENE 6.3 km/h 25.7 km/h 85% 0.51 mm 271 W/m2
12:29 12.1 °C 9.6 °C 1016.8 hPa ENE 2.7 km/h 25.7 km/h 84.3% 0.51 mm 297 W/m2
12:34 12.3 °C 9.8 °C 1016.8 hPa NE 2.1 km/h 25.7 km/h 85% 0.51 mm 308 W/m2
12:39 12.4 °C 9.9 °C 1016.8 hPa ENE 2.3 km/h 16.1 km/h 84.7% 0 mm 250 W/m2
12:44 12.6 °C 9.9 °C 1016.5 hPa NE 6 km/h 24.1 km/h 84% 0 mm 214 W/m2
12:49 12.6 °C 9.9 °C 1016.5 hPa NE 3.2 km/h 24.1 km/h 83.5% 0 mm 167 W/m2
12:54 12.6 °C 9.9 °C 1016.5 hPa ENE 5 km/h 29 km/h 83.3% 0 mm 183 W/m2
12:59 12.7 °C 9.9 °C 1016.5 hPa NE 1.9 km/h 29 km/h 83.5% 0 mm 183 W/m2
13:04 12.7 °C 9.9 °C 1016.5 hPa ENE 3.4 km/h 29 km/h 83.1% 0 mm 176 W/m2
13:09 12.7 °C 9.9 °C 1016.1 hPa NE 2.1 km/h 22.5 km/h 83% 0 mm 176 W/m2
13:14 12.8 °C 10 °C 1016.1 hPa North 3.1 km/h 22.5 km/h 83% 0 mm 162 W/m2
13:19 12.9 °C 10.1 °C 1016.1 hPa East 1 km/h 22.5 km/h 83% 0 mm 160 W/m2
13:24 12.9 °C 10 °C 1016.1 hPa NE 5.5 km/h 22.5 km/h 82.7% 0 mm 185 W/m2
13:29 12.9 °C 10 °C 1016.1 hPa ENE 3.9 km/h 22.5 km/h 82.5% 0 mm 200 W/m2
13:34 13 °C 10 °C 1015.8 hPa NE 5.8 km/h 22.5 km/h 82% 0 mm 206 W/m2
13:39 13.1 °C 10.1 °C 1015.8 hPa East 1.9 km/h 19.3 km/h 82.1% 0 mm 200 W/m2
13:44 13.2 °C 10.2 °C 1015.8 hPa ENE 1.9 km/h 20.9 km/h 82.4% 0 mm 200 W/m2
13:49 13.3 °C 10.3 °C 1015.8 hPa NE 3.5 km/h 20.9 km/h 82.4% 0 mm 181 W/m2
13:54 13.3 °C 10.3 °C 1015.8 hPa NE 7.9 km/h 20.9 km/h 82.2% 0 mm 162 W/m2
13:59 13.3 °C 10.3 °C 1015.8 hPa ENE 1.3 km/h 20.9 km/h 82% 0 mm 146 W/m2
14:04 13.3 °C 10.4 °C 1015.5 hPa NE 4.5 km/h 20.9 km/h 82.5% 0 mm 156 W/m2
14:09 13.3 °C 10.3 °C 1015.5 hPa NE 4 km/h 20.9 km/h 82% 0 mm 151 W/m2
14:14 13.3 °C 10.4 °C 1015.5 hPa ENE 6.4 km/h 25.7 km/h 82.8% 0 mm 130 W/m2
14:19 13.2 °C 10.4 °C 1015.5 hPa ENE 4 km/h 25.7 km/h 82.8% 0 mm 118 W/m2
14:24 13.2 °C 10.4 °C 1015.5 hPa NE 2.4 km/h 25.7 km/h 83% 0 mm 118 W/m2
14:29 13.2 °C 10.6 °C 1015.5 hPa ENE 3.2 km/h 25.7 km/h 83.7% 0 mm 111 W/m2
14:34 13.2 °C 10.6 °C 1015.1 hPa NE 2.9 km/h 25.7 km/h 84.2% 0 mm 120 W/m2
14:39 13.1 °C 10.7 °C 1015.1 hPa ENE 5.1 km/h 29 km/h 85% 0 mm 148 W/m2
14:44 13.1 °C 10.7 °C 1015.1 hPa NE 4.5 km/h 29 km/h 85.4% 0 mm 158 W/m2
14:49 13.1 °C 10.8 °C 1015.1 hPa NE 2.6 km/h 29 km/h 86% 0 mm 137 W/m2
14:54 13.1 °C 10.8 °C 1015.1 hPa NE 1 km/h 29 km/h 86% 0 mm 134 W/m2
14:59 13.1 °C 10.9 °C 1015.1 hPa ENE 1.1 km/h 29 km/h 86.4% 0 mm 135 W/m2
15:04 13.1 °C 10.8 °C 1015.1 hPa ENE 0.6 km/h 29 km/h 86% 0 mm 135 W/m2
15:09 13.1 °C 10.8 °C 1015.1 hPa NNE 1.1 km/h 14.5 km/h 86% 0 mm 102 W/m2
15:14 13.1 °C 10.8 °C 1015.1 hPa NNE 2.3 km/h 19.3 km/h 86% 0 mm 62 W/m2
15:19 13 °C 10.7 °C 1015.1 hPa NNE 1.9 km/h 19.3 km/h 86% 0 mm 56 W/m2
15:24 12.9 °C 10.7 °C 1015.1 hPa NE 1.4 km/h 19.3 km/h 86% 0 mm 62 W/m2
15:29 12.9 °C 10.7 °C 1015.1 hPa ENE 2.9 km/h 19.3 km/h 86% 0 mm 63 W/m2
15:34 12.9 °C 10.6 °C 1015.1 hPa ENE 5.3 km/h 24.1 km/h 86% 0 mm 63 W/m2
15:39 12.9 °C 10.6 °C 1015.1 hPa NNW 2.9 km/h 24.1 km/h 86% 0 mm 77 W/m2
15:44 12.9 °C 10.6 °C 1014.8 hPa NE 1 km/h 24.1 km/h 86% 0 mm 79 W/m2
15:49 12.9 °C 10.7 °C 1015.1 hPa ENE 1.3 km/h 24.1 km/h 86.3% 0 mm 54 W/m2
15:54 12.9 °C 10.6 °C 1015.1 hPa NE 1.9 km/h 24.1 km/h 86% 0 mm 58 W/m2
15:59 12.8 °C 10.6 °C 1015.1 hPa NE 0.3 km/h 24.1 km/h 86% 0 mm 65 W/m2
16:00 12.8 °C 10.6 °C 1014.8 hPa NNE 2.1 km/h 24.1 km/h 86% 0 mm 60 W/m2
16:09 12.8 °C 10.6 °C 1014.8 hPa East 0.5 km/h 6.4 km/h 86% 0 mm 53 W/m2
16:14 12.8 °C 10.6 °C 1014.8 hPa NE 1.6 km/h 9.7 km/h 86% 0 mm 51 W/m2
16:19 12.8 °C 10.4 °C 1014.8 hPa ENE 0.6 km/h 9.7 km/h 85.5% 0 mm 51 W/m2
16:24 12.8 °C 10.3 °C 1014.8 hPa ENE 1.6 km/h 9.7 km/h 85% 0 mm 60 W/m2
16:29 12.8 °C 10.4 °C 1014.8 hPa ENE 0.3 km/h 9.7 km/h 85% 0 mm 60 W/m2
16:34 12.8 °C 10.4 °C 1014.8 hPa NE 0.3 km/h 9.7 km/h 85% 0 mm 47 W/m2
16:39 12.8 °C 10.4 °C 1014.8 hPa East 1 km/h 8 km/h 85% 0 mm 49 W/m2
16:44 12.8 °C 10.3 °C 1014.8 hPa NE 1.8 km/h 8 km/h 84.6% 0 mm 47 W/m2
16:49 12.9 °C 10.2 °C 1014.8 hPa East 0.5 km/h 8 km/h 84% 0 mm 44 W/m2
16:54 12.9 °C 10.3 °C 1014.4 hPa NNE 1.1 km/h 11.3 km/h 84% 0 mm 42 W/m2
16:59 12.9 °C 10.3 °C 1014.4 hPa North 0.8 km/h 11.3 km/h 84% 0 mm 49 W/m2
17:04 12.9 °C 10.3 °C 1014.4 hPa North 1 km/h 11.3 km/h 84% 0 mm 53 W/m2
17:09 12.9 °C 10.1 °C 1014.4 hPa NNW 1.6 km/h 14.5 km/h 83.2% 0 mm 44 W/m2
17:14 12.9 °C 10.1 °C 1014.4 hPa NNW 2.1 km/h 14.5 km/h 83% 0 mm 33 W/m2
17:19 12.9 °C 10.1 °C 1014.4 hPa NE 1.1 km/h 14.5 km/h 83% 0 mm 23 W/m2
17:24 12.9 °C 10 °C 1014.4 hPa NE 0.2 km/h 14.5 km/h 82.5% 0 mm 19 W/m2
17:29 12.9 °C 10.1 °C 1014.4 hPa North 0.5 km/h 14.5 km/h 82.8% 0 mm 21 W/m2
17:34 12.9 °C 9.9 °C 1014.4 hPa NNW 0.3 km/h 14.5 km/h 82.1% 0 mm 19 W/m2
17:39 12.9 °C 10.1 °C 1014.4 hPa NE 0.6 km/h 14.5 km/h 82.7% 0 mm 12 W/m2
17:44 12.9 °C 10.1 °C 1014.4 hPa NNE 0.5 km/h 14.5 km/h 82.6% 0 mm 11 W/m2
17:49 12.9 °C 10.1 °C 1014.4 hPa NNE 0.3 km/h 14.5 km/h 82.6% 0 mm 7 W/m2
17:54 12.9 °C 10.1 °C 1014.4 hPa ENE 1.1 km/h 14.5 km/h 83% 0 mm 9 W/m2
17:59 12.9 °C 10.2 °C 1014.4 hPa NNE 1 km/h 14.5 km/h 83% 0 mm 7 W/m2
18:04 13 °C 10.2 °C 1014.4 hPa North 0.6 km/h 14.5 km/h 83% 0 mm 5 W/m2
18:09 13 °C 10.2 °C 1014.4 hPa NW 1.1 km/h 16.1 km/h 83% 0 mm 0 W/m2
18:14 13.1 °C 10.2 °C 1014.4 hPa NNE 1.3 km/h 16.1 km/h 83% 0 mm 0 W/m2
18:19 13.1 °C 10.3 °C 1014.4 hPa NNE 0.5 km/h 16.1 km/h 83% 0 mm 0 W/m2
18:24 13.2 °C 10.3 °C 1014.4 hPa ESE 0.5 km/h 16.1 km/h 83% 0 mm 0 W/m2
18:29 13.2 °C 10.4 °C 1014.4 hPa ESE 0.8 km/h 16.1 km/h 83% 0 mm 0 W/m2
18:34 13.3 °C 10.4 °C 1014.4 hPa NE 1.4 km/h 16.1 km/h 83% 0 mm 0 W/m2
18:39 13.3 °C 10.5 °C 1014.4 hPa ENE 0.6 km/h 14.5 km/h 83% 0 mm 0 W/m2
18:44 13.3 °C 10.5 °C 1014.4 hPa NE 0.8 km/h 14.5 km/h 83% 0 mm 0 W/m2
18:49 13.4 °C 10.7 °C 1014.4 hPa NNE 1.3 km/h 14.5 km/h 83.8% 0 mm 0 W/m2
18:54 13.4 °C 10.7 °C 1014.4 hPa NNE 1 km/h 14.5 km/h 84% 0 mm 0 W/m2
18:59 13.4 °C 10.7 °C 1014.4 hPa North 1 km/h 14.5 km/h 84% 0 mm 0 W/m2
19:04 13.3 °C 10.8 °C 1014.4 hPa WSW 1.3 km/h 17.7 km/h 84.4% 0 mm 0 W/m2
19:09 13.3 °C 10.9 °C 1014.8 hPa NE 1.1 km/h 17.7 km/h 85% 0 mm 0 W/m2
19:14 13.3 °C 10.9 °C 1014.8 hPa ENE 2.4 km/h 17.7 km/h 85% 0 mm 0 W/m2
19:19 13.3 °C 10.9 °C 1014.8 hPa ENE 2.6 km/h 17.7 km/h 85% 0 mm 0 W/m2
19:24 13.3 °C 10.9 °C 1014.8 hPa WSW 1 km/h 17.7 km/h 85% 0 mm 0 W/m2
19:29 13.3 °C 10.9 °C 1014.8 hPa ENE 1.8 km/h 17.7 km/h 85% 0 mm 0 W/m2
19:34 13.4 °C 10.9 °C 1014.8 hPa NE 2.3 km/h 17.7 km/h 85% 0 mm 0 W/m2
19:39 13.4 °C 10.9 °C 1014.8 hPa NNE 1.3 km/h 17.7 km/h 85% 0 mm 0 W/m2
19:44 13.4 °C 10.9 °C 1014.8 hPa ENE 1.4 km/h 17.7 km/h 85% 0 mm 0 W/m2
19:49 13.4 °C 10.9 °C 1014.8 hPa North 0.6 km/h 17.7 km/h 85.2% 0 mm 0 W/m2
19:54 13.4 °C 11.1 °C 1014.8 hPa NE 3.2 km/h 17.7 km/h 86% 0 mm 0 W/m2
19:59 13.4 °C 11.1 °C 1014.8 hPa East 1 km/h 17.7 km/h 86% 0 mm 0 W/m2
20:00 13.3 °C 11.1 °C 1014.8 hPa Calm   17.7 km/h 86% 0 mm 0 W/m2
20:09 13.3 °C 11.2 °C 1014.8 hPa ENE 1.3 km/h 8 km/h 87.3% 0 mm 0 W/m2
20:14 13.2 °C 11.2 °C 1014.8 hPa ENE 1.8 km/h 20.9 km/h 88% 0 mm 0 W/m2
20:19 13.1 °C 11.2 °C 1014.8 hPa ENE 1.3 km/h 20.9 km/h 88% 0 mm 0 W/m2
20:24 13.1 °C 11.2 °C 1014.8 hPa NE 2.7 km/h 20.9 km/h 88.7% 0 mm 0 W/m2
20:29 13.1 °C 11.3 °C 1014.8 hPa NE 2.6 km/h 20.9 km/h 89% 0 mm 0 W/m2
20:34 13.1 °C 11.3 °C 1014.4 hPa ENE 1.3 km/h 20.9 km/h 89% 0 mm 0 W/m2
20:39 13.1 °C 11.3 °C 1014.4 hPa NE 1 km/h 14.5 km/h 89% 0 mm 0 W/m2
20:44 13.1 °C 11.3 °C 1014.4 hPa NNE 1.6 km/h 14.5 km/h 89% 0 mm 0 W/m2
20:49 13 °C 11.2 °C 1014.4 hPa NE 1.1 km/h 14.5 km/h 89% 0 mm 0 W/m2
20:54 13 °C 11.5 °C 1014.8 hPa NE 1 km/h 14.5 km/h 90.5% 0 mm 0 W/m2
20:59 13 °C 11.6 °C 1014.8 hPa East 0.6 km/h 14.5 km/h 91% 0 mm 0 W/m2
21:04 13 °C 11.2 °C 1014.4 hPa NE 1.4 km/h 14.5 km/h 89% 0 mm 0 W/m2
21:09 13 °C 11.2 °C 1014.4 hPa ENE 1.9 km/h 16.1 km/h 89% 0 mm 0 W/m2
21:14 13.1 °C 11.3 °C 1014.8 hPa North 1.4 km/h 16.1 km/h 89% 0 mm 0 W/m2
21:19 13.1 °C 11.3 °C 1014.8 hPa NNE 2.4 km/h 16.1 km/h 89% 0 mm 0 W/m2
21:24 13 °C 11.2 °C 1014.4 hPa NNE 0.8 km/h 16.1 km/h 89% 0 mm 0 W/m2
21:29 13 °C 11.3 °C 1014.4 hPa NNE 1.4 km/h 16.1 km/h 89.5% 0.25 mm 0 W/m2
21:34 12.9 °C 11.2 °C 1014.8 hPa NNE 0.6 km/h 16.1 km/h 89.1% 0.51 mm 0 W/m2
21:39 12.8 °C 11.2 °C 1014.8 hPa East 1.8 km/h 14.5 km/h 90% 0.51 mm 0 W/m2
21:44 12.7 °C 11.1 °C 1014.8 hPa North 1.1 km/h 20.9 km/h 90% 0.51 mm 0 W/m2
21:49 12.6 °C 11.1 °C 1014.8 hPa NW 1.3 km/h 20.9 km/h 90.7% 0.51 mm 0 W/m2
21:54 12.6 °C 11.1 °C 1014.8 hPa NW 0.3 km/h 20.9 km/h 91% 0.51 mm 0 W/m2
21:59 12.4 °C 11.1 °C 1014.8 hPa NE 1 km/h 20.9 km/h 91% 0.51 mm 0 W/m2
22:04 12.4 °C 11.1 °C 1014.8 hPa NNW 1.6 km/h 20.9 km/h 91.7% 0.51 mm 0 W/m2
22:09 12.3 °C 11.1 °C 1014.8 hPa NNW 0.3 km/h 14.5 km/h 92% 0.76 mm 0 W/m2
22:14 12.3 °C 11 °C 1014.8 hPa NW 1.9 km/h 14.5 km/h 92% 0.76 mm 0 W/m2
22:19 12.3 °C 11 °C 1014.8 hPa NNW 1.4 km/h 14.5 km/h 92% 1.02 mm 0 W/m2
22:24 12.2 °C 11 °C 1014.4 hPa NNW 1.8 km/h 14.5 km/h 92.4% 1.02 mm 0 W/m2
22:29 12.2 °C 11.1 °C 1014.4 hPa NW 2.4 km/h 20.9 km/h 93% 1.52 mm 0 W/m2
22:34 12.2 °C 11.1 °C 1014.4 hPa NW 1 km/h 20.9 km/h 93% 1.78 mm 0 W/m2
22:39 12.1 °C 11 °C 1014.4 hPa NNE 0.6 km/h 16.1 km/h 93% 1.78 mm 0 W/m2
22:44 12.1 °C 10.9 °C 1014.4 hPa North 1.1 km/h 16.1 km/h 93% 1.78 mm 0 W/m2
22:49 12.1 °C 10.9 °C 1014.4 hPa North 1.4 km/h 16.1 km/h 93% 1.78 mm 0 W/m2
22:54 12 °C 11 °C 1014.4 hPa NNW 1.4 km/h 17.7 km/h 93.6% 1.78 mm 0 W/m2
22:59 12 °C 11.1 °C 1014.1 hPa NW 1.9 km/h 17.7 km/h 94% 1.78 mm 0 W/m2
23:04 12 °C 11.1 °C 1014.1 hPa North 1 km/h 11.3 km/h 94% 1.52 mm 0 W/m2
23:09 11.9 °C 11.1 °C 1014.1 hPa North 1.3 km/h 11.3 km/h 94% 1.52 mm 0 W/m2
23:14 11.9 °C 11 °C 1014.1 hPa NNW 1.8 km/h 20.9 km/h 94% 1.52 mm 0 W/m2
23:19 11.9 °C 11 °C 1014.1 hPa North 1.1 km/h 20.9 km/h 94% 1.52 mm 0 W/m2
23:24 11.9 °C 11 °C 1014.1 hPa North 0.5 km/h 20.9 km/h 94% 1.52 mm 0 W/m2
23:29 11.9 °C 11 °C 1014.1 hPa ENE 0.8 km/h 20.9 km/h 94% 1.52 mm 0 W/m2
23:34 11.9 °C 11 °C 1014.1 hPa NNW 0.6 km/h 20.9 km/h 94% 1.52 mm 0 W/m2
23:39 11.9 °C 11 °C 1014.1 hPa WSW 0.6 km/h 9.7 km/h 94% 0.51 mm 0 W/m2
23:44 11.9 °C 11.1 °C 1014.1 hPa North 0.5 km/h 9.7 km/h 94.2% 0.51 mm 0 W/m2
23:49 12 °C 11.1 °C 1014.1 hPa North 1.6 km/h 9.7 km/h 94% 0.51 mm 0 W/m2
23:54 12 °C 11.1 °C 1014.1 hPa North 1.6 km/h 9.7 km/h 94% 0.51 mm 0 W/m2
23:59 12 °C 11.1 °C 1014.1 hPa NNW 2.6 km/h 19.3 km/h 94% 0.51 mm 0 W/m2
Hartford County Weather
Compliments of Weather Underground - 4 mb